sensor_id;sensor_type;location;lat;lon;timestamp;pressure;altitude;pressure_sealevel;temperature;humidity
44198;BME280;30157;55.512;37.764;2022-11-10T00:00:32;100277.53;;;7.59;90.71
44198;BME280;30157;55.512;37.764;2022-11-10T00:03:19;100277.50;;;7.56;90.66
44198;BME280;30157;55.512;37.764;2022-11-10T00:06:05;100284.50;;;7.63;90.99
44198;BME280;30157;55.512;37.764;2022-11-10T00:08:49;100273.25;;;7.58;90.69
44198;BME280;30157;55.512;37.764;2022-11-10T00:11:33;100183.78;;;7.05;90.32
44198;BME280;30157;55.512;37.764;2022-11-10T00:14:18;100281.88;;;7.60;90.50
44198;BME280;30157;55.512;37.764;2022-11-10T00:17:21;100281.03;;;7.61;90.47
44198;BME280;30157;55.512;37.764;2022-11-10T00:20:06;100187.34;;;7.12;90.69
44198;BME280;30157;55.512;37.764;2022-11-10T00:22:53;100251.53;;;7.45;90.45
44198;BME280;30157;55.512;37.764;2022-11-10T00:25:37;100274.22;;;7.65;90.66
44198;BME280;30157;55.512;37.764;2022-11-10T00:28:21;100264.72;;;7.65;90.51
44198;BME280;30157;55.512;37.764;2022-11-10T00:31:06;100278.50;;;7.64;90.44
44198;BME280;30157;55.512;37.764;2022-11-10T00:33:50;100210.03;;;7.34;90.45
44198;BME280;30157;55.512;37.764;2022-11-10T00:36:34;100268.13;;;7.61;90.52
44198;BME280;30157;55.512;37.764;2022-11-10T00:39:19;100263.78;;;7.59;90.41
44198;BME280;30157;55.512;37.764;2022-11-10T00:42:03;100256.84;;;7.56;90.29
44198;BME280;30157;55.512;37.764;2022-11-10T00:44:48;100262.13;;;7.62;90.61
44198;BME280;30157;55.512;37.764;2022-11-10T00:47:32;100267.28;;;7.62;90.58
44198;BME280;30157;55.512;37.764;2022-11-10T00:50:16;100267.28;;;7.64;90.61
44198;BME280;30157;55.512;37.764;2022-11-10T00:53:01;100262.94;;;7.61;90.42
44198;BME280;30157;55.512;37.764;2022-11-10T00:55:46;100265.53;;;7.61;90.25
44198;BME280;30157;55.512;37.764;2022-11-10T00:58:29;100240.38;;;7.49;90.23
44198;BME280;30157;55.512;37.764;2022-11-10T01:01:15;100168.28;;;7.03;90.29
44198;BME280;30157;55.512;37.764;2022-11-10T01:04:00;100228.16;;;7.37;90.47
44198;BME280;30157;55.512;37.764;2022-11-10T01:06:44;100265.50;;;7.60;90.23
44198;BME280;30157;55.512;37.764;2022-11-10T01:09:30;100264.63;;;7.59;90.27
44198;BME280;30157;55.512;37.764;2022-11-10T01:12:14;100249.09;;;7.56;90.10
44198;BME280;30157;55.512;37.764;2022-11-10T01:14:58;100257.78;;;7.61;90.21
44198;BME280;30157;55.512;37.764;2022-11-10T01:17:42;100242.97;;;7.49;89.91
44198;BME280;30157;55.512;37.764;2022-11-10T01:20:26;100203.09;;;7.30;90.12
44198;BME280;30157;55.512;37.764;2022-11-10T01:23:11;100251.78;;;7.62;90.32
44198;BME280;30157;55.512;37.764;2022-11-10T01:25:59;100150.19;;;7.02;89.82
44198;BME280;30157;55.512;37.764;2022-11-10T01:28:44;100157.94;;;7.02;90.11
44198;BME280;30157;55.512;37.764;2022-11-10T01:31:28;100201.41;;;7.32;89.95
44198;BME280;30157;55.512;37.764;2022-11-10T01:34:12;100217.91;;;7.42;90.01
44198;BME280;30157;55.512;37.764;2022-11-10T01:36:57;100238.75;;;7.54;89.85
44198;BME280;30157;55.512;37.764;2022-11-10T01:39:41;100149.34;;;7.01;89.63
44198;BME280;30157;55.512;37.764;2022-11-10T01:42:28;100247.44;;;7.60;89.88
44198;BME280;30157;55.512;37.764;2022-11-10T01:48:11;100250.84;;;7.59;89.66
44198;BME280;30157;55.512;37.764;2022-11-10T01:51:07;100192.75;;;7.27;89.61
44198;BME280;30157;55.512;37.764;2022-11-10T01:53:55;100243.94;;;7.56;89.71
44198;BME280;30157;55.512;37.764;2022-11-10T01:56:45;100233.56;;;7.54;89.58
44198;BME280;30157;55.512;37.764;2022-11-10T01:59:34;100230.91;;;7.50;89.76
44198;BME280;30157;55.512;37.764;2022-11-10T02:02:27;100245.66;;;7.55;89.90
44198;BME280;30157;55.512;37.764;2022-11-10T02:05:13;100230.91;;;7.50;89.85
44198;BME280;30157;55.512;37.764;2022-11-10T02:07:58;100241.28;;;7.51;89.97
44198;BME280;30157;55.512;37.764;2022-11-10T02:10:43;100234.38;;;7.49;90.01
44198;BME280;30157;55.512;37.764;2022-11-10T02:13:27;100230.81;;;7.42;89.78
44198;BME280;30157;55.512;37.764;2022-11-10T02:16:12;100231.78;;;7.49;89.92
44198;BME280;30157;55.512;37.764;2022-11-10T02:18:56;100231.72;;;7.46;89.78
44198;BME280;30157;55.512;37.764;2022-11-10T02:21:40;100240.34;;;7.45;90.30
44198;BME280;30157;55.512;37.764;2022-11-10T02:24:24;100229.09;;;7.41;90.03
44198;BME280;30157;55.512;37.764;2022-11-10T02:27:09;100230.81;;;7.40;90.07
44198;BME280;30157;55.512;37.764;2022-11-10T02:29:53;100184.72;;;7.09;89.86
44198;BME280;30157;55.512;37.764;2022-11-10T02:32:37;100192.50;;;7.12;90.11
44198;BME280;30157;55.512;37.764;2022-11-10T02:35:22;100185.56;;;7.09;90.24
44198;BME280;30157;55.512;37.764;2022-11-10T02:38:06;100208.94;;;7.18;89.97
44198;BME280;30157;55.512;37.764;2022-11-10T02:40:52;100214.16;;;7.21;90.21
44198;BME280;30157;55.512;37.764;2022-11-10T02:43:37;100247.97;;;7.38;90.22
44198;BME280;30157;55.512;37.764;2022-11-10T02:46:22;100224.41;;;7.15;90.35
44198;BME280;30157;55.512;37.764;2022-11-10T02:49:05;100264.28;;;7.36;90.22
44198;BME280;30157;55.512;37.764;2022-11-10T02:51:50;100190.69;;;7.04;90.07
44198;BME280;30157;55.512;37.764;2022-11-10T02:54:34;100247.88;;;7.32;89.94
44198;BME280;30157;55.512;37.764;2022-11-10T02:57:19;100254.75;;;7.30;90.27
44198;BME280;30157;55.512;37.764;2022-11-10T03:00:05;100190.50;;;6.92;90.34
44198;BME280;30157;55.512;37.764;2022-11-10T03:02:59;100204.31;;;6.97;90.22
44198;BME280;30157;55.512;37.764;2022-11-10T03:05:47;100259.78;;;7.22;90.33
44198;BME280;30157;55.512;37.764;2022-11-10T03:08:31;100255.50;;;7.23;90.30
44198;BME280;30157;55.512;37.764;2022-11-10T03:11:15;100235.53;;;7.13;90.13
44198;BME280;30157;55.512;37.764;2022-11-10T03:13:59;100240.66;;;7.10;90.08
44198;BME280;30157;55.512;37.764;2022-11-10T03:16:44;100212.84;;;6.93;90.11
44198;BME280;30157;55.512;37.764;2022-11-10T03:19:28;100253.72;;;7.19;90.11
44198;BME280;30157;55.512;37.764;2022-11-10T03:22:12;100261.38;;;7.14;90.29
44198;BME280;30157;55.512;37.764;2022-11-10T03:24:57;100250.16;;;7.12;90.05
44198;BME280;30157;55.512;37.764;2022-11-10T03:27:41;100215.38;;;6.90;89.81
44198;BME280;30157;55.512;37.764;2022-11-10T03:30:25;100235.22;;;6.93;90.06
44198;BME280;30157;55.512;37.764;2022-11-10T03:33:10;100247.41;;;7.01;90.06
44198;BME280;30157;55.512;37.764;2022-11-10T03:35:54;100207.47;;;6.79;90.03
44198;BME280;30157;55.512;37.764;2022-11-10T03:38:38;100267.19;;;7.01;89.97
44198;BME280;30157;55.512;37.764;2022-11-10T03:41:23;100254.22;;;6.98;89.81
44198;BME280;30157;55.512;37.764;2022-11-10T03:44:07;100222.16;;;6.83;89.43
44198;BME280;30157;55.512;37.764;2022-11-10T03:46:51;100253.34;;;6.97;89.58
44198;BME280;30157;55.512;37.764;2022-11-10T03:49:35;100248.97;;;6.93;89.14
44198;BME280;30157;55.512;37.764;2022-11-10T03:52:20;100253.28;;;6.93;89.34
44198;BME280;30157;55.512;37.764;2022-11-10T03:55:05;100244.63;;;6.90;89.24
44198;BME280;30157;55.512;37.764;2022-11-10T03:57:49;100231.53;;;6.80;89.21
44198;BME280;30157;55.512;37.764;2022-11-10T04:00:33;100209.69;;;6.59;89.21
44198;BME280;30157;55.512;37.764;2022-11-10T04:03:17;100241.94;;;6.83;88.42
44198;BME280;30157;55.512;37.764;2022-11-10T04:06:02;100218.53;;;6.72;88.87
44198;BME280;30157;55.512;37.764;2022-11-10T04:09:05;100236.81;;;6.86;88.68
44198;BME280;30157;55.512;37.764;2022-11-10T04:11:50;100232.44;;;6.80;88.69
44198;BME280;30157;55.512;37.764;2022-11-10T04:14:53;100234.00;;;6.72;88.52
44198;BME280;30157;55.512;37.764;2022-11-10T04:17:56;100205.34;;;6.55;88.56
44198;BME280;30157;55.512;37.764;2022-11-10T04:21:00;100235.66;;;6.68;88.26
44198;BME280;30157;55.512;37.764;2022-11-10T04:23:45;100168.81;;;6.30;87.90
44198;BME280;30157;55.512;37.764;2022-11-10T04:26:29;100229.47;;;6.57;87.90
44198;BME280;30157;55.512;37.764;2022-11-10T04:29:18;100223.34;;;6.52;87.74
44198;BME280;30157;55.512;37.764;2022-11-10T04:32:02;100232.75;;;6.50;87.46
44198;BME280;30157;55.512;37.764;2022-11-10T04:34:47;100245.78;;;6.58;87.56
44198;BME280;30157;55.512;37.764;2022-11-10T04:37:31;100217.97;;;6.39;87.27
44198;BME280;30157;55.512;37.764;2022-11-10T04:40:16;100172.06;;;6.21;87.28
44198;BME280;30157;55.512;37.764;2022-11-10T04:42:59;100196.22;;;6.27;86.69
44198;BME280;30157;55.512;37.764;2022-11-10T04:45:44;100228.34;;;6.44;87.29
44198;BME280;30157;55.512;37.764;2022-11-10T04:48:29;100241.25;;;6.44;87.09
44198;BME280;30157;55.512;37.764;2022-11-10T04:51:14;100215.94;;;6.25;87.42
44198;BME280;30157;55.512;37.764;2022-11-10T04:53:59;100256.72;;;6.44;87.19
44198;BME280;30157;55.512;37.764;2022-11-10T04:56:43;100255.78;;;6.41;87.39
44198;BME280;30157;55.512;37.764;2022-11-10T04:59:27;100255.69;;;6.36;87.70
44198;BME280;30157;55.512;37.764;2022-11-10T05:02:11;100260.84;;;6.36;87.66
44198;BME280;30157;55.512;37.764;2022-11-10T05:04:55;100218.16;;;6.04;87.99
44198;BME280;30157;55.512;37.764;2022-11-10T05:07:40;100281.28;;;6.25;88.35
44198;BME280;30157;55.512;37.764;2022-11-10T05:10:24;100257.75;;;6.10;88.51
44198;BME280;30157;55.512;37.764;2022-11-10T05:13:09;100273.38;;;6.17;88.40
44198;BME280;30157;55.512;37.764;2022-11-10T05:15:54;100284.50;;;6.16;88.22
44198;BME280;30157;55.512;37.764;2022-11-10T05:18:39;100191.78;;;5.77;87.97
44198;BME280;30157;55.512;37.764;2022-11-10T05:21:23;100277.59;;;6.14;88.07
44198;BME280;30157;55.512;37.764;2022-11-10T05:24:07;100281.06;;;6.14;87.88
44198;BME280;30157;55.512;37.764;2022-11-10T05:26:51;100285.28;;;6.12;88.05
44198;BME280;30157;55.512;37.764;2022-11-10T05:29:35;100261.81;;;5.98;88.10
44198;BME280;30157;55.512;37.764;2022-11-10T05:32:20;100276.56;;;6.05;88.30
44198;BME280;30157;55.512;37.764;2022-11-10T05:35:04;100265.19;;;5.97;87.86
44198;BME280;30157;55.512;37.764;2022-11-10T05:37:49;100263.41;;;5.95;88.33
44198;BME280;30157;55.512;37.764;2022-11-10T05:40:33;100269.50;;;5.97;88.13
44198;BME280;30157;55.512;37.764;2022-11-10T05:43:18;100267.19;;;6.09;87.99
44198;BME280;30157;55.512;37.764;2022-11-10T05:46:02;100247.91;;;5.92;88.21
44198;BME280;30157;55.512;37.764;2022-11-10T05:48:46;100252.13;;;5.88;88.56
44198;BME280;30157;55.512;37.764;2022-11-10T05:51:30;100259.75;;;5.83;88.92
44198;BME280;30157;55.512;37.764;2022-11-10T05:54:15;100261.13;;;5.67;89.13
44198;BME280;30157;55.512;37.764;2022-11-10T05:56:59;100105.56;;;4.78;89.24
44198;BME280;30157;55.512;37.764;2022-11-10T05:59:43;100264.09;;;5.84;89.18
44198;BME280;30157;55.512;37.764;2022-11-10T06:02:31;100267.56;;;5.88;88.52
44198;BME280;30157;55.512;37.764;2022-11-10T06:05:15;100273.94;;;6.02;87.98
44198;BME280;30157;55.512;37.764;2022-11-10T06:08:01;100264.69;;;6.14;87.53
44198;BME280;30157;55.512;37.764;2022-11-10T06:10:45;100272.88;;;6.35;86.83
44198;BME280;30157;55.512;37.764;2022-11-10T06:13:29;100225.44;;;6.27;85.70
44198;BME280;30157;55.512;37.764;2022-11-10T06:16:14;100263.31;;;7.28;83.79
44198;BME280;30157;55.512;37.764;2022-11-10T06:18:58;100251.38;;;7.97;80.80
44198;BME280;30157;55.512;37.764;2022-11-10T06:21:42;100265.06;;;7.30;81.56
44198;BME280;30157;55.512;37.764;2022-11-10T06:24:26;100250.59;;;7.42;81.58
44198;BME280;30157;55.512;37.764;2022-11-10T06:27:11;100260.75;;;7.89;80.02
44198;BME280;30157;55.512;37.764;2022-11-10T06:29:55;100255.50;;;8.53;76.62
44198;BME280;30157;55.512;37.764;2022-11-10T06:32:42;100138.03;;;8.36;75.01
44198;BME280;30157;55.512;37.764;2022-11-10T06:35:29;100263.41;;;8.67;73.72
44198;BME280;30157;55.512;37.764;2022-11-10T06:38:14;100264.94;;;7.81;78.27
44198;BME280;30157;55.512;37.764;2022-11-10T06:40:58;100258.78;;;7.13;80.24
44198;BME280;30157;55.512;37.764;2022-11-10T06:43:42;100224.50;;;6.69;81.08
44198;BME280;30157;55.512;37.764;2022-11-10T06:46:26;100266.78;;;6.78;82.13
44198;BME280;30157;55.512;37.764;2022-11-10T06:49:10;100268.41;;;6.72;82.46
44198;BME280;30157;55.512;37.764;2022-11-10T06:51:54;100244.75;;;6.48;83.24
44198;BME280;30157;55.512;37.764;2022-11-10T06:54:38;100229.06;;;6.35;83.17
44198;BME280;30157;55.512;37.764;2022-11-10T06:57:22;100239.09;;;6.69;82.79
44198;BME280;30157;55.512;37.764;2022-11-10T07:00:07;100205.81;;;6.34;82.59
44198;BME280;30157;55.512;37.764;2022-11-10T07:03:05;100256.22;;;6.64;83.12
44198;BME280;30157;55.512;37.764;2022-11-10T07:05:50;100255.28;;;6.60;83.11
44198;BME280;30157;55.512;37.764;2022-11-10T07:08:37;100259.78;;;6.70;83.09
44198;BME280;30157;55.512;37.764;2022-11-10T07:11:21;100260.88;;;6.85;82.58
44198;BME280;30157;55.512;37.764;2022-11-10T07:14:06;100224.72;;;6.83;81.61
44198;BME280;30157;55.512;37.764;2022-11-10T07:16:52;100211.44;;;6.59;81.99
44198;BME280;30157;55.512;37.764;2022-11-10T07:19:37;100226.28;;;6.73;81.73
44198;BME280;30157;55.512;37.764;2022-11-10T07:22:21;100246.34;;;7.45;81.34
44198;BME280;30157;55.512;37.764;2022-11-10T07:25:06;100259.34;;;8.16;78.80
44198;BME280;30157;55.512;37.764;2022-11-10T07:27:58;100253.88;;;8.62;75.29
44198;BME280;30157;55.512;37.764;2022-11-10T07:30:43;100264.16;;;9.62;73.17
44198;BME280;30157;55.512;37.764;2022-11-10T07:33:27;100263.59;;;10.18;69.48
44198;BME280;30157;55.512;37.764;2022-11-10T07:36:12;100240.38;;;10.63;69.04
44198;BME280;30157;55.512;37.764;2022-11-10T07:38:56;100262.91;;;11.54;66.32
44198;BME280;30157;55.512;37.764;2022-11-10T07:41:40;100250.38;;;9.67;67.68
44198;BME280;30157;55.512;37.764;2022-11-10T07:44:24;100242.66;;;9.77;69.22
44198;BME280;30157;55.512;37.764;2022-11-10T07:47:10;100236.28;;;9.25;70.29
44198;BME280;30157;55.512;37.764;2022-11-10T07:49:54;100172.34;;;9.18;69.03
44198;BME280;30157;55.512;37.764;2022-11-10T07:52:38;100259.59;;;9.25;71.02
44198;BME280;30157;55.512;37.764;2022-11-10T07:55:22;100254.53;;;9.42;71.00
44198;BME280;30157;55.512;37.764;2022-11-10T07:58:09;100271.50;;;9.04;71.44
44198;BME280;30157;55.512;37.764;2022-11-10T08:00:53;100251.50;;;8.06;74.31
44198;BME280;30157;55.512;37.764;2022-11-10T08:03:37;100233.91;;;7.79;75.74
44198;BME280;30157;55.512;37.764;2022-11-10T08:06:22;100278.56;;;7.67;77.02
44198;BME280;30157;55.512;37.764;2022-11-10T08:09:06;100275.09;;;7.68;77.33
44198;BME280;30157;55.512;37.764;2022-11-10T08:11:53;100255.03;;;7.50;77.98
44198;BME280;30157;55.512;37.764;2022-11-10T08:14:37;100239.44;;;7.43;77.70
44198;BME280;30157;55.512;37.764;2022-11-10T08:17:21;100269.13;;;7.72;77.43
44198;BME280;30157;55.512;37.764;2022-11-10T08:20:08;100270.91;;;7.77;77.88
44198;BME280;30157;55.512;37.764;2022-11-10T08:23:00;100270.81;;;7.69;77.74
44198;BME280;30157;55.512;37.764;2022-11-10T08:25:47;100204.13;;;7.42;77.75
44198;BME280;30157;55.512;37.764;2022-11-10T08:28:36;100256.94;;;7.62;77.96
44198;BME280;30157;55.512;37.764;2022-11-10T08:31:20;100270.63;;;7.56;78.48
44198;BME280;30157;55.512;37.764;2022-11-10T08:34:05;100267.16;;;7.54;78.75
44198;BME280;30157;55.512;37.764;2022-11-10T08:36:52;100202.03;;;7.17;79.16
44198;BME280;30157;55.512;37.764;2022-11-10T08:39:36;100228.09;;;7.33;79.20
44198;BME280;30157;55.512;37.764;2022-11-10T08:42:21;100267.97;;;7.50;79.23
44198;BME280;30157;55.512;37.764;2022-11-10T08:45:05;100230.75;;;7.37;79.22
44198;BME280;30157;55.512;37.764;2022-11-10T08:48:04;100250.81;;;7.54;79.05
44198;BME280;30157;55.512;37.764;2022-11-10T08:50:48;100267.22;;;7.59;79.30
44198;BME280;30157;55.512;37.764;2022-11-10T08:53:33;100250.75;;;7.51;79.37
44198;BME280;30157;55.512;37.764;2022-11-10T08:56:17;100250.72;;;7.49;79.63
44198;BME280;30157;55.512;37.764;2022-11-10T08:59:01;100201.34;;;7.28;79.63
44198;BME280;30157;55.512;37.764;2022-11-10T09:01:46;100265.66;;;7.69;79.55
44198;BME280;30157;55.512;37.764;2022-11-10T09:04:30;100246.47;;;7.53;79.16
44198;BME280;30157;55.512;37.764;2022-11-10T09:07:14;100248.38;;;7.66;79.36
44198;BME280;30157;55.512;37.764;2022-11-10T09:09:59;100251.97;;;7.78;79.11
44198;BME280;30157;55.512;37.764;2022-11-10T09:12:43;100220.00;;;7.71;78.90
44198;BME280;30157;55.512;37.764;2022-11-10T09:15:29;100227.88;;;7.79;78.94
44198;BME280;30157;55.512;37.764;2022-11-10T09:18:13;100215.81;;;7.81;78.23
44198;BME280;30157;55.512;37.764;2022-11-10T09:20:58;100230.69;;;7.96;78.28
44198;BME280;30157;55.512;37.764;2022-11-10T09:23:42;100191.78;;;7.85;77.74
44198;BME280;30157;55.512;37.764;2022-11-10T09:26:27;100186.63;;;7.85;77.57
44198;BME280;30157;55.512;37.764;2022-11-10T09:29:11;100193.44;;;7.80;77.34
44198;BME280;30157;55.512;37.764;2022-11-10T09:31:55;100245.47;;;8.07;77.76
44198;BME280;30157;55.512;37.764;2022-11-10T09:34:39;100248.97;;;8.13;77.60
44198;BME280;30157;55.512;37.764;2022-11-10T09:37:24;100257.66;;;8.18;77.68
44198;BME280;30157;55.512;37.764;2022-11-10T09:40:58;100198.97;;;8.09;76.78
44198;BME280;30157;55.512;37.764;2022-11-10T09:43:32;100245.94;;;8.46;76.78
44198;BME280;30157;55.512;37.764;2022-11-10T09:46:37;100215.56;;;8.30;76.54
44198;BME280;30157;55.512;37.764;2022-11-10T09:49:34;100244.13;;;8.40;77.17
44198;BME280;30157;55.512;37.764;2022-11-10T09:52:20;100241.00;;;8.69;76.58
44198;BME280;30157;55.512;37.764;2022-11-10T09:55:20;100229.97;;;8.90;75.84
44198;BME280;30157;55.512;37.764;2022-11-10T09:58:11;100229.31;;;9.15;73.70
44198;BME280;30157;55.512;37.764;2022-11-10T10:01:09;100225.03;;;9.23;73.94
44198;BME280;30157;55.512;37.764;2022-11-10T10:07:26;100237.22;;;9.38;73.27
44198;BME280;30157;55.512;37.764;2022-11-10T10:10:38;100224.41;;;9.55;72.64
44198;BME280;30157;55.512;37.764;2022-11-10T10:22:53;100217.72;;;10.08;69.99
44198;BME280;30157;55.512;37.764;2022-11-10T10:25:41;100084.31;;;9.19;69.74
44198;BME280;30157;55.512;37.764;2022-11-10T10:28:35;100159.63;;;9.59;70.40
44198;BME280;30157;55.512;37.764;2022-11-10T10:31:28;100214.22;;;10.01;70.06
44198;BME280;30157;55.512;37.764;2022-11-10T10:34:19;100165.78;;;9.86;69.63
44198;BME280;30157;55.512;37.764;2022-11-10T10:41:36;100195.19;;;9.96;69.44
44198;BME280;30157;55.512;37.764;2022-11-10T10:44:20;100207.31;;;9.91;69.75
44198;BME280;30157;55.512;37.764;2022-11-10T10:47:04;100186.53;;;9.88;69.83
44198;BME280;30157;55.512;37.764;2022-11-10T10:49:51;100238.47;;;10.05;70.14
44198;BME280;30157;55.512;37.764;2022-11-10T10:52:38;100178.66;;;9.58;69.90
44198;BME280;30157;55.512;37.764;2022-11-10T10:55:26;100227.09;;;9.80;69.99
44198;BME280;30157;55.512;37.764;2022-11-10T10:58:21;100187.22;;;9.45;70.57
44198;BME280;30157;55.512;37.764;2022-11-10T11:01:28;100240.91;;;9.77;70.49
44198;BME280;30157;55.512;37.764;2022-11-10T11:04:34;100175.13;;;9.47;70.33
44198;BME280;30157;55.512;37.764;2022-11-10T11:07:21;100227.16;;;9.84;70.33
44198;BME280;30157;55.512;37.764;2022-11-10T11:10:20;100211.59;;;9.90;70.22
44198;BME280;30157;55.512;37.764;2022-11-10T11:13:21;100221.97;;;9.89;70.13
44198;BME280;30157;55.512;37.764;2022-11-10T11:16:08;100199.34;;;9.54;70.52
44198;BME280;30157;55.512;37.764;2022-11-10T11:18:55;100227.09;;;9.80;70.75
44198;BME280;30157;55.512;37.764;2022-11-10T11:25:10;100210.75;;;9.87;70.37
44198;BME280;30157;55.512;37.764;2022-11-10T11:28:27;100209.03;;;9.95;70.14
44198;BME280;30157;55.512;37.764;2022-11-10T11:40:26;100155.16;;;9.31;71.85
44198;BME280;30157;55.512;37.764;2022-11-10T11:50:08;100225.94;;;9.27;73.00
44198;BME280;30157;55.512;37.764;2022-11-10T11:55:54;100178.41;;;9.18;72.45
44198;BME280;30157;55.512;37.764;2022-11-10T11:58:51;100232.16;;;9.53;72.32
44198;BME280;30157;55.512;37.764;2022-11-10T12:04:54;100225.94;;;9.28;73.14
44198;BME280;30157;55.512;37.764;2022-11-10T12:14:02;100165.25;;;8.92;73.70
44198;BME280;30157;55.512;37.764;2022-11-10T12:25:47;100223.28;;;9.19;74.42
44198;BME280;30157;55.512;37.764;2022-11-10T12:28:48;100210.28;;;9.10;74.50
44198;BME280;30157;55.512;37.764;2022-11-10T12:31:37;100216.97;;;8.83;75.05
44198;BME280;30157;55.512;37.764;2022-11-10T12:34:31;100124.13;;;8.21;75.72
44198;BME280;30157;55.512;37.764;2022-11-10T12:37:40;100236.69;;;8.68;76.21
44198;BME280;30157;55.512;37.764;2022-11-10T12:40:38;100227.94;;;8.58;76.57
44198;BME280;30157;55.512;37.764;2022-11-10T12:43:25;100247.69;;;8.49;77.20
44198;BME280;30157;55.512;37.764;2022-11-10T12:46:12;100245.13;;;8.50;77.08
44198;BME280;30157;55.512;37.764;2022-11-10T12:49:13;100248.59;;;8.52;77.13
44198;BME280;30157;55.512;37.764;2022-11-10T12:54:52;100260.50;;;8.41;77.41
44198;BME280;30157;55.512;37.764;2022-11-10T12:57:39;100189.25;;;7.88;77.96
44198;BME280;30157;55.512;37.764;2022-11-10T13:00:38;100236.94;;;8.15;78.06
44198;BME280;30157;55.512;37.764;2022-11-10T13:03:26;100267.25;;;8.27;78.26
44198;BME280;30157;55.512;37.764;2022-11-10T13:06:37;100271.63;;;8.31;78.62
44198;BME280;30157;55.512;37.764;2022-11-10T13:09:33;100258.56;;;8.20;78.67
44198;BME280;30157;55.512;37.764;2022-11-10T13:12:21;100248.94;;;8.10;79.11
44198;BME280;30157;55.512;37.764;2022-11-10T13:24:38;100279.19;;;8.18;79.44
44198;BME280;30157;55.512;37.764;2022-11-10T13:30:45;100286.94;;;8.17;79.56
44198;BME280;30157;55.512;37.764;2022-11-10T13:33:32;100236.47;;;7.79;79.78
44198;BME280;30157;55.512;37.764;2022-11-10T13:36:43;100298.06;;;8.08;80.30
44198;BME280;30157;55.512;37.764;2022-11-10T13:39:31;100292.81;;;8.05;80.44
44198;BME280;30157;55.512;37.764;2022-11-10T13:42:17;100275.53;;;7.99;80.42
44198;BME280;30157;55.512;37.764;2022-11-10T13:45:28;100296.31;;;8.08;80.33
44198;BME280;30157;55.512;37.764;2022-11-10T13:51:20;100304.16;;;8.13;80.36
44198;BME280;30157;55.512;37.764;2022-11-10T13:54:27;100240.69;;;7.71;80.72
44198;BME280;30157;55.512;37.764;2022-11-10T13:57:35;100301.56;;;8.13;81.17
44198;BME280;30157;55.512;37.764;2022-11-10T14:03:06;100309.28;;;8.12;81.03
44198;BME280;30157;55.512;37.764;2022-11-10T14:06:01;100316.16;;;8.08;80.92
44198;BME280;30157;55.512;37.764;2022-11-10T14:09:17;100279.69;;;7.88;81.28
44198;BME280;30157;55.512;37.764;2022-11-10T14:12:06;100301.34;;;7.96;81.25
44198;BME280;30157;55.512;37.764;2022-11-10T14:15:19;100314.38;;;8.05;81.06
44198;BME280;30157;55.512;37.764;2022-11-10T14:18:24;100317.78;;;8.01;81.56
44198;BME280;30157;55.512;37.764;2022-11-10T14:21:11;100313.47;;;8.03;81.47
44198;BME280;30157;55.512;37.764;2022-11-10T14:27:48;100296.19;;;7.98;81.81
44198;BME280;30157;55.512;37.764;2022-11-10T14:30:33;100284.91;;;7.94;81.73
44198;BME280;30157;55.512;37.764;2022-11-10T14:33:17;100197.38;;;7.51;81.35
44198;BME280;30157;55.512;37.764;2022-11-10T14:36:04;100135.63;;;7.05;81.85
44198;BME280;30157;55.512;37.764;2022-11-10T14:38:50;100272.66;;;7.79;81.80
44198;BME280;30157;55.512;37.764;2022-11-10T14:41:35;100271.78;;;7.77;82.05
44198;BME280;30157;55.512;37.764;2022-11-10T14:44:25;100265.69;;;7.72;82.14
44198;BME280;30157;55.512;37.764;2022-11-10T14:53:01;100275.03;;;7.62;82.53
44198;BME280;30157;55.512;37.764;2022-11-10T14:55:46;100279.25;;;7.57;82.62
44198;BME280;30157;55.512;37.764;2022-11-10T14:58:37;100317.41;;;7.77;82.47
44198;BME280;30157;55.512;37.764;2022-11-10T15:01:47;100311.28;;;7.68;82.29
44198;BME280;30157;55.512;37.764;2022-11-10T15:04:32;100305.13;;;7.60;82.80
44198;BME280;30157;55.512;37.764;2022-11-10T15:07:17;100291.97;;;7.43;82.63
44198;BME280;30157;55.512;37.764;2022-11-10T15:13:05;100330.13;;;7.61;82.51
44198;BME280;30157;55.512;37.764;2022-11-10T15:15:50;100301.25;;;7.33;82.88
44198;BME280;30157;55.512;37.764;2022-11-10T15:18:36;100333.41;;;7.52;83.04
44198;BME280;30157;55.512;37.764;2022-11-10T15:21:27;100313.34;;;7.34;82.92
44198;BME280;30157;55.512;37.764;2022-11-10T15:24:12;100299.47;;;7.29;83.33
44198;BME280;30157;55.512;37.764;2022-11-10T15:26:57;100320.31;;;7.42;83.19
44198;BME280;30157;55.512;37.764;2022-11-10T15:29:41;100265.53;;;7.06;82.84
44198;BME280;30157;55.512;37.764;2022-11-10T15:32:41;100260.22;;;6.97;82.98
44198;BME280;30157;55.512;37.764;2022-11-10T15:35:30;100252.44;;;6.94;83.30
44198;BME280;30157;55.512;37.764;2022-11-10T15:41:22;100308.94;;;7.29;83.07
44198;BME280;30157;55.512;37.764;2022-11-10T15:44:26;100321.06;;;7.33;83.43
44198;BME280;30157;55.512;37.764;2022-11-10T15:47:15;100320.16;;;7.32;83.52
44198;BME280;30157;55.512;37.764;2022-11-10T15:50:00;100254.03;;;6.87;83.40
44198;BME280;30157;55.512;37.764;2022-11-10T15:52:44;100323.69;;;7.36;83.65
44198;BME280;30157;55.512;37.764;2022-11-10T15:55:28;100327.97;;;7.34;83.29
44198;BME280;30157;55.512;37.764;2022-11-10T15:58:18;100316.81;;;7.36;83.30
44198;BME280;30157;55.512;37.764;2022-11-10T16:01:03;100253.94;;;6.81;83.60
44198;BME280;30157;55.512;37.764;2022-11-10T16:03:47;100261.84;;;6.90;83.35
44198;BME280;30157;55.512;37.764;2022-11-10T16:06:31;100320.78;;;7.16;83.31
44198;BME280;30157;55.512;37.764;2022-11-10T16:09:16;100323.31;;;7.13;83.49
44198;BME280;30157;55.512;37.764;2022-11-10T16:12:00;100311.22;;;7.10;83.76
44198;BME280;30157;55.512;37.764;2022-11-10T16:14:47;100216.28;;;6.43;84.02